Time;durP1;ratioP1;P1;durP2;ratioP2;P2;SDS_P1;SDS_P2;PMS_P1;PMS_P2;Temp;Humidity;BMP_temperature;BMP_pressure;BME280_temperature;BME280_humidity;BME280_pressure;Samples;Min_cycle;Max_cycle;Signal;HPM_P1;HPM_P2
2023/10/22 00:00:25;;;;;;;0.90;0.90;;;;;;;-0.97;100.00;99971.44;4752158;30;20056;-78
2023/10/22 00:02:52;;;;;;;1.00;1.00;;;;;;;-1.05;100.00;99968.69;4743540;30;20110;-78
2023/10/22 00:05:19;;;;;;;0.80;0.80;;;;;;;-1.12;100.00;99959.66;4744190;30;20056;-78
2023/10/22 00:07:46;;;;;;;1.00;1.00;;;;;;;-1.14;100.00;99956.31;4747168;30;20061;-78
2023/10/22 00:10:13;;;;;;;0.95;0.95;;;;;;;-1.18;100.00;99950.47;4746693;30;20056;-77
2023/10/22 00:12:40;;;;;;;0.98;0.98;;;;;;;-1.15;100.00;99933.44;4751636;30;20102;-76
2023/10/22 00:15:08;;;;;;;1.08;1.08;;;;;;;-1.12;100.00;99930.50;4751799;30;20063;-77
2023/10/22 00:17:36;;;;;;;0.90;0.90;;;;;;;-1.14;100.00;99930.66;4765019;30;20143;-78
2023/10/22 00:20:03;;;;;;;0.93;0.93;;;;;;;-1.15;100.00;99917.56;4750452;30;20060;-79
2023/10/22 00:22:32;;;;;;;1.00;1.00;;;;;;;-1.14;100.00;99927.16;4751662;30;20126;-79
2023/10/22 00:25:01;;;;;;;0.80;0.80;;;;;;;-1.12;100.00;99938.44;4751813;30;20421;-79
2023/10/22 00:27:32;;;;;;;1.00;1.00;;;;;;;-1.06;100.00;99950.28;4751751;30;20056;-78
2023/10/22 00:30:00;;;;;;;0.80;0.80;;;;;;;-0.99;100.00;99964.59;4735867;30;20159;-78
2023/10/22 00:32:34;;;;;;;1.10;1.10;;;;;;;-0.88;100.00;99953.84;4751365;30;20090;-79
2023/10/22 00:35:02;;;;;;;1.00;1.00;;;;;;;-0.84;100.00;99949.06;4751573;30;20549;-79
2023/10/22 00:37:32;;;;;;;0.90;0.90;;;;;;;-0.84;100.00;99935.81;4751216;30;20273;-78
2023/10/22 00:40:00;;;;;;;0.93;0.93;;;;;;;-0.80;100.00;99937.19;4751392;30;20058;-78
2023/10/22 00:42:27;;;;;;;1.00;1.00;;;;;;;-0.84;100.00;99941.94;4750484;30;20052;-77
2023/10/22 00:44:55;;;;;;;1.00;1.00;;;;;;;-0.84;100.00;99957.00;4749931;30;20420;-78
2023/10/22 00:47:22;;;;;;;0.90;0.90;;;;;;;-0.73;100.00;99970.09;4751327;30;20058;-79
2023/10/22 00:49:49;;;;;;;0.80;0.80;;;;;;;-0.63;99.63;99970.00;4749712;30;20052;-78
2023/10/22 00:52:16;;;;;;;0.90;0.90;;;;;;;-0.59;99.07;99964.25;4769487;30;20520;-78
2023/10/22 00:54:44;;;;;;;0.90;0.90;;;;;;;-0.52;98.89;99960.03;4764857;30;20067;-79
2023/10/22 00:57:13;;;;;;;1.00;1.00;;;;;;;-0.52;98.29;99946.75;4779378;30;20470;-79
2023/10/22 00:59:41;;;;;;;1.02;1.02;;;;;;;-0.53;98.38;99954.84;4749676;30;20060;-79
2023/10/22 01:02:08;;;;;;;1.00;1.00;;;;;;;-0.59;98.29;99951.00;4751198;30;20500;-78
2023/10/22 01:04:35;;;;;;;0.90;0.90;;;;;;;-0.60;98.25;99948.50;4750683;30;20080;-79
2023/10/22 01:07:05;;;;;;;1.00;1.00;;;;;;;-0.65;98.47;99941.00;4749850;30;20508;-78
2023/10/22 01:09:32;;;;;;;0.82;0.82;;;;;;;-0.64;98.71;99945.31;4751080;30;20058;-78
2023/10/22 01:12:01;;;;;;;0.93;0.93;;;;;;;-0.62;98.67;99958.44;4751195;30;20508;-79
2023/10/22 01:14:29;;;;;;;0.90;0.90;;;;;;;-0.55;98.78;99967.47;4750469;30;20056;-78
2023/10/22 01:16:57;;;;;;;0.90;0.90;;;;;;;-0.47;98.15;99971.03;4750890;30;20098;-79
2023/10/22 01:19:24;;;;;;;0.90;0.90;;;;;;;-0.48;97.57;99963.19;4765011;30;20490;-77
2023/10/22 01:21:51;;;;;;;1.00;1.00;;;;;;;-0.44;97.06;99953.97;4750808;30;20143;-79
2023/10/22 01:24:18;;;;;;;1.00;1.00;;;;;;;-0.42;96.86;99952.00;4750869;30;20052;-76
2023/10/22 01:26:47;;;;;;;1.05;1.05;;;;;;;-0.48;96.64;99939.34;4749458;30;20113;-77
2023/10/22 01:29:14;;;;;;;1.00;1.00;;;;;;;-0.51;97.12;99937.81;4749529;30;20056;-78
2023/10/22 01:31:41;;;;;;;1.00;1.00;;;;;;;-0.50;97.25;99931.53;4764293;30;20052;-79
2023/10/22 01:34:08;;;;;;;0.93;0.93;;;;;;;-0.55;96.85;99925.84;4749894;30;20062;-78
2023/10/22 01:36:35;;;;;;;0.85;0.85;;;;;;;-0.58;96.86;99931.47;4750688;30;20084;-78
2023/10/22 01:39:03;;;;;;;0.90;0.90;;;;;;;-0.53;97.17;99955.72;4750600;30;20090;-78
2023/10/22 01:41:30;;;;;;;0.75;0.75;;;;;;;-0.50;97.09;99960.72;4750726;30;20080;-77
2023/10/22 01:43:58;;;;;;;0.95;0.95;;;;;;;-0.45;97.05;99950.50;4764137;30;20048;-78
2023/10/22 01:46:26;;;;;;;1.00;1.00;;;;;;;-0.39;96.95;99921.69;4750944;30;20051;-80
2023/10/22 01:48:53;;;;;;;0.93;0.93;;;;;;;-0.33;96.88;99910.47;4750382;30;20221;-79
2023/10/22 01:51:22;;;;;;;0.80;0.80;;;;;;;-0.31;96.47;99911.97;4749654;30;20053;-79
2023/10/22 01:53:50;;;;;;;0.80;0.80;;;;;;;-0.35;96.41;99921.25;4750353;30;20078;-78
2023/10/22 01:56:18;;;;;;;0.80;0.80;;;;;;;-0.32;96.27;99922.75;4764464;30;20112;-79
2023/10/22 01:58:46;;;;;;;0.90;0.90;;;;;;;-0.31;96.03;99913.81;4748906;30;20431;-79
2023/10/22 02:01:14;;;;;;;0.85;0.85;;;;;;;-0.33;95.86;99907.81;4764301;30;20048;-79
2023/10/22 02:03:45;;;;;;;0.90;0.90;;;;;;;-0.32;95.94;99915.63;4749274;30;20044;-80
2023/10/22 02:06:14;;;;;;;0.90;0.90;;;;;;;-0.28;95.68;99914.34;4764140;30;20059;-79
2023/10/22 02:08:41;;;;;;;0.93;0.93;;;;;;;-0.27;95.36;99902.75;4750388;30;20059;-79
2023/10/22 02:11:09;;;;;;;1.00;1.00;;;;;;;-0.32;95.11;99885.63;4764151;30;20052;-79
2023/10/22 02:13:38;;;;;;;0.82;0.82;;;;;;;-0.39;95.32;99881.91;4734513;30;20147;-78
2023/10/22 02:16:05;;;;;;;1.10;1.10;;;;;;;-0.40;95.65;99874.97;4750459;30;20060;-78
2023/10/22 02:18:34;;;;;;;0.90;0.90;;;;;;;-0.39;95.87;99855.38;4763883;30;20110;-79
2023/10/22 02:21:05;;;;;;;1.00;1.00;;;;;;;-0.39;95.77;99879.25;4763835;30;20059;-78
2023/10/22 02:23:33;;;;;;;0.90;0.90;;;;;;;-0.40;95.86;99872.31;4750735;30;20055;-79
2023/10/22 02:26:01;;;;;;;0.90;0.90;;;;;;;-0.34;95.79;99866.38;4750344;30;20419;-78
2023/10/22 02:28:28;;;;;;;1.00;1.00;;;;;;;-0.35;95.53;99868.19;4750391;30;20060;-77
2023/10/22 02:30:55;;;;;;;0.90;0.90;;;;;;;-0.35;95.63;99870.84;4750059;30;20052;-77
2023/10/22 02:33:22;;;;;;;1.00;1.00;;;;;;;-0.30;95.28;99875.69;4763911;30;20082;-78
2023/10/22 02:35:51;;;;;;;1.00;1.00;;;;;;;-0.31;95.10;99871.38;4750053;30;20059;-78
2023/10/22 02:38:18;;;;;;;1.00;1.00;;;;;;;-0.33;94.92;99852.09;4750196;30;20052;-76
2023/10/22 02:40:49;;;;;;;0.98;0.98;;;;;;;-0.33;95.12;99841.50;4750051;30;20083;-78
2023/10/22 02:43:16;;;;;;;1.00;1.00;;;;;;;-0.28;95.01;99831.25;4750217;30;20543;-77
2023/10/22 02:45:54;;;;;;;0.93;0.93;;;;;;;-0.23;94.76;99844.91;4749926;30;20064;-79
2023/10/22 02:48:25;;;;;;;1.00;1.00;;;;;;;-0.27;94.61;99843.56;4750170;30;20596;-78
2023/10/22 02:50:52;;;;;;;1.10;1.10;;;;;;;-0.31;94.72;99844.84;4750204;30;20056;-79
2023/10/22 02:53:19;;;;;;;0.90;0.90;;;;;;;-0.34;94.54;99858.41;4749988;30;20064;-78
2023/10/22 02:55:46;;;;;;;0.95;0.95;;;;;;;-0.41;94.92;99857.34;4748837;30;20048;-78
2023/10/22 02:58:13;;;;;;;1.08;1.08;;;;;;;-0.39;94.67;99863.34;4750000;30;20601;-79
2023/10/22 03:00:41;;;;;;;1.00;1.00;;;;;;;-0.40;94.73;99867.00;4749927;30;20088;-79
2023/10/22 03:03:08;;;;;;;1.10;1.10;;;;;;;-0.41;94.62;99868.78;4763568;30;20135;-79
2023/10/22 03:05:36;;;;;;;1.00;1.00;;;;;;;-0.46;94.84;99871.06;4763618;30;20052;-78
2023/10/22 03:08:04;;;;;;;1.00;1.00;;;;;;;-0.48;94.98;99871.25;4749116;30;20086;-78
2023/10/22 03:10:36;;;;;;;0.90;0.90;;;;;;;-0.47;95.04;99872.91;4766932;30;20052;-78
2023/10/22 03:13:04;;;;;;;1.02;1.02;;;;;;;-0.47;95.03;99864.13;4766695;30;20139;-78
2023/10/22 03:15:33;;;;;;;1.00;1.00;;;;;;;-0.43;95.21;99860.19;4766911;30;20064;-78
2023/10/22 03:18:01;;;;;;;0.90;0.90;;;;;;;-0.43;95.27;99868.13;4752928;30;20142;-78
2023/10/22 03:20:34;;;;;;;0.85;0.85;;;;;;;-0.42;95.04;99851.22;4753139;30;20052;-79
2023/10/22 03:23:03;;;;;;;0.80;0.80;;;;;;;-0.35;94.94;99860.25;4752884;30;20122;-79
2023/10/22 03:25:31;;;;;;;0.90;0.90;;;;;;;-0.34;94.79;99853.09;4759849;30;20052;-78
2023/10/22 03:28:00;;;;;;;1.00;1.00;;;;;;;-0.38;94.97;99851.75;4770436;30;20078;-79
2023/10/22 03:30:29;;;;;;;1.00;1.00;;;;;;;-0.37;95.10;99848.94;4770504;30;20080;-78
2023/10/22 03:32:58;;;;;;;1.00;1.00;;;;;;;-0.38;95.33;99842.00;4769672;30;20079;-79
2023/10/22 03:35:25;;;;;;;0.90;0.90;;;;;;;-0.38;95.37;99827.88;4770429;30;20573;-78
2023/10/22 03:37:52;;;;;;;0.80;0.80;;;;;;;-0.33;95.47;99839.72;4753637;30;20064;-78
2023/10/22 03:40:19;;;;;;;0.80;0.80;;;;;;;-0.36;95.13;99828.56;4769344;30;20051;-77
2023/10/22 03:42:48;;;;;;;1.00;1.00;;;;;;;-0.30;95.05;99830.59;4770778;30;20095;-78
2023/10/22 03:45:16;;;;;;;0.77;0.77;;;;;;;-0.31;94.90;99821.78;4770736;30;20051;-78
2023/10/22 03:47:43;;;;;;;0.90;0.90;;;;;;;-0.30;94.86;99806.72;4768707;30;20079;-78
2023/10/22 03:50:10;;;;;;;0.90;0.90;;;;;;;-0.36;94.67;99810.81;4770473;30;20554;-78
2023/10/22 03:52:38;;;;;;;0.93;0.93;;;;;;;-0.40;94.61;99817.44;4770107;30;20059;-78
2023/10/22 03:55:10;;;;;;;0.90;0.90;;;;;;;-0.49;94.76;99813.88;4770008;30;20060;-78
2023/10/22 03:57:38;;;;;;;1.00;1.00;;;;;;;-0.52;94.82;99808.88;4769731;30;20056;-79
2023/10/22 04:00:07;;;;;;;0.90;0.90;;;;;;;-0.54;94.94;99810.00;4770365;30;20059;-78
2023/10/22 04:02:38;;;;;;;0.77;0.77;;;;;;;-0.52;95.12;99805.41;4770271;30;20142;-79
2023/10/22 04:05:07;;;;;;;1.10;1.10;;;;;;;-0.54;95.06;99805.53;4769964;30;20577;-79
2023/10/22 04:07:35;;;;;;;1.00;1.00;;;;;;;-0.55;95.33;99797.75;4768956;30;20520;-78
2023/10/22 04:10:09;;;;;;;0.90;0.90;;;;;;;-0.55;95.41;99795.94;4769522;30;20081;-79
2023/10/22 04:12:36;;;;;;;1.00;1.00;;;;;;;-0.55;95.38;99809.19;4755361;30;20059;-78
2023/10/22 04:15:04;;;;;;;1.00;1.00;;;;;;;-0.63;95.72;99816.22;4768749;30;20072;-79
2023/10/22 04:17:31;;;;;;;0.90;0.90;;;;;;;-0.63;95.70;99819.72;4769660;30;20059;-79
2023/10/22 04:19:58;;;;;;;0.90;0.90;;;;;;;-0.69;95.85;99809.72;4769115;30;20052;-78
2023/10/22 04:22:26;;;;;;;0.90;0.90;;;;;;;-0.73;95.96;99806.56;4769893;30;20079;-78
2023/10/22 04:24:53;;;;;;;0.90;0.90;;;;;;;-0.71;96.14;99814.34;4769467;30;20052;-79
2023/10/22 04:27:20;;;;;;;0.93;0.93;;;;;;;-0.70;96.07;99816.03;4770009;30;20147;-79
2023/10/22 04:29:48;;;;;;;0.90;0.90;;;;;;;-0.71;95.98;99801.06;4753509;30;20051;-79
2023/10/22 04:32:19;;;;;;;0.98;0.98;;;;;;;-0.68;96.40;99808.75;4770035;30;20436;-77
2023/10/22 04:34:46;;;;;;;1.00;1.00;;;;;;;-0.63;96.63;99816.22;4769727;30;20083;-79
2023/10/22 04:37:13;;;;;;;1.00;1.00;;;;;;;-0.54;96.35;99820.63;4769667;30;20067;-77
2023/10/22 04:39:41;;;;;;;1.00;1.00;;;;;;;-0.50;96.49;99819.34;4769586;30;20062;-79
2023/10/22 04:42:08;;;;;;;1.00;1.00;;;;;;;-0.43;96.59;99825.69;4769453;30;20144;-79
2023/10/22 04:44:35;;;;;;;0.90;0.90;;;;;;;-0.42;96.44;99831.84;4769701;30;20047;-79
2023/10/22 04:47:03;;;;;;;1.00;1.00;;;;;;;-0.41;96.29;99846.75;4769129;30;20059;-78
2023/10/22 04:49:31;;;;;;;0.90;0.90;;;;;;;-0.49;96.12;99861.59;4769309;30;20066;-79
2023/10/22 04:51:58;;;;;;;1.00;1.00;;;;;;;-0.49;96.28;99861.59;4768942;30;20496;-78
2023/10/22 04:54:25;;;;;;;1.00;1.00;;;;;;;-0.42;96.35;99859.19;4769349;30;20058;-79
2023/10/22 04:56:52;;;;;;;1.00;1.00;;;;;;;-0.36;96.12;99861.22;4767937;30;20059;-78
2023/10/22 04:59:20;;;;;;;0.90;0.90;;;;;;;-0.31;95.75;99858.94;4769213;30;20071;-78
2023/10/22 05:01:47;;;;;;;0.90;0.90;;;;;;;-0.22;95.83;99867.81;4768039;30;20455;-78
2023/10/22 05:04:14;;;;;;;0.93;0.93;;;;;;;-0.21;95.39;99872.09;4769409;30;20052;-79
2023/10/22 05:06:41;;;;;;;0.93;0.93;;;;;;;-0.23;95.55;99869.63;4769451;30;20138;-77
2023/10/22 05:09:08;;;;;;;0.80;0.80;;;;;;;-0.22;95.26;99868.63;4769017;30;20052;-79
2023/10/22 05:11:35;;;;;;;0.80;0.80;;;;;;;-0.27;95.17;99862.94;4769117;30;20060;-79
2023/10/22 05:14:03;;;;;;;1.10;1.10;;;;;;;-0.26;94.92;99861.13;4768856;30;20079;-77
2023/10/22 05:16:30;;;;;;;0.98;0.98;;;;;;;-0.27;94.37;99870.09;4768984;30;20055;-78
2023/10/22 05:18:57;;;;;;;1.00;1.00;;;;;;;-0.33;94.39;99870.69;4768636;30;20247;-79
2023/10/22 05:21:24;;;;;;;0.88;0.88;;;;;;;-0.39;94.38;99863.34;4782905;30;20059;-78
2023/10/22 05:23:51;;;;;;;1.02;1.02;;;;;;;-0.41;94.48;99874.09;4768619;30;20083;-80
2023/10/22 05:26:18;;;;;;;0.80;0.80;;;;;;;-0.44;94.79;99875.22;4768826;30;20515;-79
2023/10/22 05:28:46;;;;;;;1.00;1.00;;;;;;;-0.41;95.10;99868.78;4768924;30;20060;-79
2023/10/22 05:31:13;;;;;;;0.90;0.90;;;;;;;-0.40;94.76;99862.53;4767349;30;20056;-79
2023/10/22 05:33:42;;;;;;;1.00;1.00;;;;;;;-0.44;95.13;99843.41;4768299;30;20557;-78
2023/10/22 05:36:20;;;;;;;1.00;1.00;;;;;;;-0.34;95.13;99853.94;4756557;30;20060;-80
2023/10/22 05:38:47;;;;;;;1.00;1.00;;;;;;;-0.30;94.85;99860.63;4740868;30;20061;-79
2023/10/22 05:41:22;;;;;;;0.95;0.95;;;;;;;-0.35;94.67;99875.34;4733416;30;20056;-79
2023/10/22 05:43:51;;;;;;;0.93;0.93;;;;;;;-0.33;94.66;99897.22;4733426;30;20056;-79
2023/10/22 05:46:18;;;;;;;0.90;0.90;;;;;;;-0.33;94.51;99897.22;4735002;30;20056;-80
2023/10/22 05:48:45;;;;;;;1.00;1.00;;;;;;;-0.37;94.61;99903.81;4740322;30;20428;-80
2023/10/22 05:51:12;;;;;;;1.10;1.10;;;;;;;-0.33;94.17;99903.38;4750332;30;20056;-80
2023/10/22 05:53:40;;;;;;;0.90;0.90;;;;;;;-0.30;94.24;99905.72;4750508;30;20079;-80
2023/10/22 05:56:07;;;;;;;1.00;1.00;;;;;;;-0.23;94.38;99908.56;4750946;30;20429;-79
2023/10/22 05:58:34;;;;;;;1.10;1.10;;;;;;;-0.18;94.11;99898.31;4742572;30;20071;-80
2023/10/22 06:01:02;;;;;;;1.00;1.00;;;;;;;-0.12;94.01;99889.78;4736437;30;20402;-79
2023/10/22 06:03:30;;;;;;;0.90;0.90;;;;;;;-0.08;93.88;99879.66;4733464;30;20052;-80
2023/10/22 06:06:03;;;;;;;0.90;0.90;;;;;;;-0.10;93.78;99873.69;4746159;30;20069;-80
2023/10/22 06:08:31;;;;;;;0.90;0.90;;;;;;;-0.12;93.38;99892.44;4745777;30;20509;-79
2023/10/22 06:10:58;;;;;;;1.10;1.10;;;;;;;-0.17;93.22;99886.75;4746995;30;20055;-80
2023/10/22 06:13:37;;;;;;;1.00;1.00;;;;;;;-0.27;93.44;99891.31;4741602;30;20052;-80
2023/10/22 06:16:25;;;;;;;1.00;1.00;;;;;;;-0.32;93.15;99891.75;4742445;30;20155;-79
2023/10/22 06:18:54;;;;;;;0.90;0.90;;;;;;;-0.25;93.38;99908.75;4464258;30;10001444;-79
2023/10/22 06:21:22;;;;;;;0.85;0.85;;;;;;;-0.16;93.17;99906.16;4742594;30;20306;-79
2023/10/22 06:23:50;;;;;;;0.82;0.82;;;;;;;-0.17;93.44;99896.53;4737576;30;20052;-79
2023/10/22 06:26:17;;;;;;;0.90;0.90;;;;;;;-0.08;93.49;99887.63;4739854;30;20052;-81
2023/10/22 06:28:55;;;;;;;1.10;1.10;;;;;;;0.01;93.34;99891.19;4744831;30;20060;-80
2023/10/22 06:31:23;;;;;;;1.10;1.10;;;;;;;-0.03;93.18;99867.59;4742990;30;20071;-79
2023/10/22 06:33:50;;;;;;;0.93;0.93;;;;;;;-0.01;92.97;99872.75;4745555;30;20056;-79
2023/10/22 06:36:20;;;;;;;1.02;1.02;;;;;;;-0.08;93.21;99872.53;4744759;30;20227;-79
2023/10/22 06:38:48;;;;;;;1.00;1.00;;;;;;;0.04;93.65;99890.88;4746384;30;20432;-82
2023/10/22 06:41:23;;;;;;;1.10;1.10;;;;;;;0.04;93.48;99889.06;4749184;30;20064;-80
2023/10/22 06:43:51;;;;;;;0.90;0.90;;;;;;;0.04;93.61;99882.91;4750638;30;20048;-79
2023/10/22 06:46:18;;;;;;;0.93;0.93;;;;;;;0.19;93.59;99897.28;4748941;30;20144;-79
2023/10/22 06:48:46;;;;;;;1.10;1.10;;;;;;;0.21;93.32;99885.53;4732038;30;20122;-79
2023/10/22 06:51:18;;;;;;;0.95;0.95;;;;;;;0.34;93.22;99874.47;4745703;30;20060;-80
2023/10/22 06:53:46;;;;;;;0.80;0.80;;;;;;;0.50;93.07;99864.94;4746954;30;20072;-80
2023/10/22 06:56:15;;;;;;;0.98;0.98;;;;;;;0.56;92.43;99867.81;4747941;30;20052;-80
2023/10/22 06:58:44;;;;;;;1.00;1.00;;;;;;;0.61;91.76;99864.66;4750575;30;20194;-78
2023/10/22 07:01:13;;;;;;;0.95;0.95;;;;;;;0.60;91.56;99839.91;4732135;30;20139;-78
2023/10/22 07:03:45;;;;;;;1.00;1.00;;;;;;;0.59;91.44;99846.22;4744495;30;20145;-79
2023/10/22 07:06:13;;;;;;;1.10;1.10;;;;;;;0.53;90.95;99840.69;4746546;30;20500;-80
2023/10/22 07:08:41;;;;;;;0.90;0.90;;;;;;;0.53;91.18;99846.03;4744016;30;20132;-79
2023/10/22 07:11:09;;;;;;;0.90;0.90;;;;;;;0.55;91.13;99850.19;4741609;30;20048;-81
2023/10/22 07:13:37;;;;;;;1.10;1.10;;;;;;;0.34;90.46;99844.44;4735852;30;20083;-80
2023/10/22 07:16:05;;;;;;;1.05;1.05;;;;;;;0.35;90.57;99854.88;4750509;30;20629;-80
2023/10/22 07:18:33;;;;;;;1.00;1.00;;;;;;;0.37;90.62;99855.56;4750798;30;20078;-80
2023/10/22 07:21:01;;;;;;;0.90;0.90;;;;;;;0.38;90.79;99853.75;4748886;30;20048;-80
2023/10/22 07:23:31;;;;;;;1.10;1.10;;;;;;;0.51;91.00;99856.00;4763752;30;20060;-81
2023/10/22 07:25:59;;;;;;;1.05;1.05;;;;;;;0.67;90.94;99861.38;4751429;30;20056;-81
2023/10/22 07:28:30;;;;;;;0.95;0.95;;;;;;;0.78;90.57;99834.50;4757213;30;20060;-81
2023/10/22 07:30:57;;;;;;;1.00;1.00;;;;;;;0.91;90.07;99830.56;4751357;30;20048;-80
2023/10/22 07:33:28;;;;;;;1.00;1.00;;;;;;;0.84;89.75;99827.72;4746377;30;20056;-80
2023/10/22 07:36:00;;;;;;;0.90;0.90;;;;;;;1.06;89.41;99847.53;4747746;30;20060;-80
2023/10/22 07:38:40;;;;;;;1.00;1.00;;;;;;;1.13;88.60;99861.84;4778790;30;20119;-80
2023/10/22 07:41:14;;;;;;;1.00;1.00;;;;;;;1.10;88.22;99837.41;4776879;30;20066;-79
2023/10/22 07:43:42;;;;;;;1.00;1.00;;;;;;;1.10;88.05;99842.75;4452102;29;10000917;-79
2023/10/22 07:46:18;;;;;;;1.00;1.00;;;;;;;1.08;88.05;99829.59;4773926;30;20055;-80
2023/10/22 07:48:45;;;;;;;0.88;0.88;;;;;;;1.13;88.07;99827.28;4773579;30;20059;-78
2023/10/22 07:51:37;;;;;;;1.00;1.00;;;;;;;1.18;87.92;99827.63;4761961;30;20066;-78
2023/10/22 07:54:12;;;;;;;0.90;0.90;;;;;;;1.06;87.57;99816.50;4776319;30;20720;-78
2023/10/22 07:56:39;;;;;;;1.00;1.00;;;;;;;1.08;87.93;99795.88;4762979;30;20079;-79
2023/10/22 07:59:07;;;;;;;1.00;1.00;;;;;;;1.29;87.86;99814.03;4757933;30;20118;-80
2023/10/22 08:01:39;;;;;;;1.08;1.08;;;;;;;1.39;87.94;99802.38;4763847;30;20066;-80
2023/10/22 08:04:09;;;;;;;1.10;1.10;;;;;;;1.40;87.17;99785.44;4771351;30;20536;-78
2023/10/22 08:06:37;;;;;;;0.90;0.90;;;;;;;1.34;87.03;99775.44;4777405;30;20547;-79
2023/10/22 08:09:04;;;;;;;1.00;1.00;;;;;;;1.41;86.90;99771.94;4776351;30;20051;-80
2023/10/22 08:11:37;;;;;;;1.00;1.00;;;;;;;1.38;86.11;99758.16;4777310;30;20163;-78
2023/10/22 08:14:05;;;;;;;0.90;0.90;;;;;;;1.38;86.12;99742.22;4785272;30;20547;-79
2023/10/22 08:16:32;;;;;;;0.90;0.90;;;;;;;1.47;85.79;99762.50;4754690;30;20083;-82
2023/10/22 08:18:59;;;;;;;0.90;0.90;;;;;;;1.47;85.71;99765.16;4749203;30;20059;-80
2023/10/22 08:21:27;;;;;;;0.90;0.90;;;;;;;1.49;85.33;99756.00;4751831;30;20082;-79
2023/10/22 08:23:54;;;;;;;0.88;0.88;;;;;;;1.49;85.38;99749.84;4751713;30;20092;-77
2023/10/22 08:26:22;;;;;;;1.00;1.00;;;;;;;1.34;85.53;99738.22;4752674;30;20110;-79
2023/10/22 08:28:49;;;;;;;0.80;0.80;;;;;;;1.39;85.57;99751.84;4752798;30;20056;-82
2023/10/22 08:31:16;;;;;;;1.10;1.10;;;;;;;1.33;85.60;99742.72;4752570;30;20075;-79
2023/10/22 08:33:44;;;;;;;1.00;1.00;;;;;;;1.32;86.11;99741.06;4753095;30;20126;-79
2023/10/22 08:36:11;;;;;;;0.90;0.90;;;;;;;1.29;86.24;99742.22;4752077;30;20060;-79
2023/10/22 08:38:39;;;;;;;1.10;1.10;;;;;;;1.42;86.16;99735.53;4751575;30;20516;-79
2023/10/22 08:41:22;;;;;;;1.00;1.00;;;;;;;1.43;86.04;99734.56;4751808;30;20048;-79
2023/10/22 08:43:49;;;;;;;1.00;1.00;;;;;;;1.52;86.33;99738.88;4751701;30;20147;-79
2023/10/22 08:46:17;;;;;;;1.00;1.00;;;;;;;1.64;86.12;99734.03;4751786;30;20060;-79
2023/10/22 08:48:44;;;;;;;0.93;0.93;;;;;;;1.62;85.73;99723.56;4752018;30;20600;-79
2023/10/22 08:51:12;;;;;;;1.00;1.00;;;;;;;1.71;85.46;99725.19;4750550;30;20060;-79
2023/10/22 08:53:39;;;;;;;1.00;1.00;;;;;;;1.73;85.45;99725.88;4735568;30;20063;-81
2023/10/22 08:56:10;;;;;;;1.00;1.00;;;;;;;1.72;85.40;99731.34;4751777;30;20070;-80
2023/10/22 08:58:39;;;;;;;0.90;0.90;;;;;;;1.69;85.67;99735.16;4752307;30;20052;-79
2023/10/22 09:01:09;;;;;;;0.90;0.90;;;;;;;1.65;85.93;99733.03;4751226;30;20060;-79
2023/10/22 09:03:36;;;;;;;0.80;0.80;;;;;;;1.65;86.19;99733.88;4751521;30;20147;-79
2023/10/22 09:06:05;;;;;;;1.00;1.00;;;;;;;1.77;86.05;99722.84;4751194;30;20056;-78
2023/10/22 09:08:43;;;;;;;1.10;1.10;;;;;;;1.82;85.70;99728.50;4751557;30;20066;-79
2023/10/22 09:11:13;;;;;;;0.90;0.90;;;;;;;1.78;85.35;99730.69;4751449;30;20433;-79
2023/10/22 09:13:40;;;;;;;1.00;1.00;;;;;;;1.76;85.29;99726.53;4751961;30;20048;-79
2023/10/22 09:16:09;;;;;;;0.90;0.90;;;;;;;1.69;85.38;99727.19;4749531;30;20052;-80
2023/10/22 09:18:46;;;;;;;1.00;1.00;;;;;;;1.76;85.17;99730.00;4751230;30;20052;-79
2023/10/22 09:21:13;;;;;;;1.00;1.00;;;;;;;1.70;85.52;99718.22;4751196;30;20060;-79
2023/10/22 09:23:41;;;;;;;0.80;0.80;;;;;;;1.72;85.74;99705.59;4751076;30;20056;-79
2023/10/22 09:26:12;;;;;;;0.90;0.90;;;;;;;1.79;85.30;99702.22;4764051;30;20060;-78
2023/10/22 09:28:40;;;;;;;0.82;0.82;;;;;;;1.79;85.38;99691.59;4764302;30;20441;-79
2023/10/22 09:31:07;;;;;;;1.00;1.00;;;;;;;1.75;85.25;99685.78;4750751;30;20524;-79
2023/10/22 09:33:37;;;;;;;1.00;1.00;;;;;;;1.72;85.32;99691.44;4761503;30;20062;-79
2023/10/22 09:36:05;;;;;;;0.95;0.95;;;;;;;1.66;85.36;99679.63;4747861;30;20151;-79
2023/10/22 09:38:39;;;;;;;1.00;1.00;;;;;;;1.61;85.55;99671.34;4750089;30;20056;-80
2023/10/22 09:41:07;;;;;;;1.10;1.10;;;;;;;1.64;85.65;99659.53;4749462;30;20063;-81
2023/10/22 09:43:35;;;;;;;1.00;1.00;;;;;;;1.69;85.80;99665.97;4746677;30;20049;-78
2023/10/22 09:46:03;;;;;;;1.00;1.00;;;;;;;1.65;85.34;99645.22;4744012;30;20473;-79
2023/10/22 09:48:31;;;;;;;1.10;1.10;;;;;;;1.65;85.30;99651.38;4745216;30;20428;-78
2023/10/22 09:50:58;;;;;;;0.90;0.90;;;;;;;1.63;85.57;99664.03;4742909;30;20056;-79
2023/10/22 09:53:27;;;;;;;0.90;0.90;;;;;;;1.64;85.71;99646.22;4745179;30;20079;-78
2023/10/22 09:55:54;;;;;;;0.80;0.80;;;;;;;1.65;85.60;99640.72;4743863;30;20056;-78
2023/10/22 09:58:30;;;;;;;0.80;0.80;;;;;;;1.64;85.86;99648.88;4745242;30;20049;-77
2023/10/22 10:00:59;;;;;;;0.80;0.80;;;;;;;1.61;85.56;99649.22;4741337;30;20090;-79
2023/10/22 10:03:27;;;;;;;1.10;1.10;;;;;;;1.45;85.72;99644.78;4750799;30;20057;-81
2023/10/22 10:05:54;;;;;;;0.98;0.98;;;;;;;1.43;86.41;99642.28;4748092;30;20101;-79
2023/10/22 10:08:22;;;;;;;1.00;1.00;;;;;;;1.45;86.27;99650.09;4742565;30;20410;-79
2023/10/22 10:10:50;;;;;;;0.95;0.95;;;;;;;1.38;86.68;99630.50;4745079;30;20602;-80
2023/10/22 10:13:17;;;;;;;0.80;0.80;;;;;;;1.43;86.68;99646.78;4749671;30;20143;-79
2023/10/22 10:15:58;;;;;;;0.90;0.90;;;;;;;1.53;87.23;99650.09;4741181;30;20053;-81
2023/10/22 10:19:00;;;;;;;1.00;1.00;;;;;;;1.48;86.86;99649.75;4751201;30;20508;-79
2023/10/22 10:21:34;;;;;;;1.00;1.00;;;;;;;1.34;86.95;99645.13;4735744;30;20109;-80
2023/10/22 10:24:29;;;;;;;0.93;0.93;;;;;;;1.28;87.13;99636.81;4743672;30;20059;-79
2023/10/22 10:26:57;;;;;;;1.10;1.10;;;;;;;1.22;87.32;99636.69;4744153;30;20102;-79
2023/10/22 10:29:31;;;;;;;0.90;0.90;;;;;;;1.23;87.60;99633.84;4743809;30;20439;-79
2023/10/22 10:32:14;;;;;;;0.93;0.93;;;;;;;1.35;87.66;99625.53;4419341;30;10001108;-79
2023/10/22 10:34:52;;;;;;;0.90;0.90;;;;;;;1.30;87.40;99616.22;4742478;30;20064;-79
2023/10/22 10:37:21;;;;;;;1.10;1.10;;;;;;;1.27;87.62;99616.56;4742765;30;20059;-79
2023/10/22 10:39:53;;;;;;;0.93;0.93;;;;;;;1.30;87.59;99613.56;4744882;30;20151;-79
2023/10/22 10:42:29;;;;;;;0.95;0.95;;;;;;;1.41;87.88;99622.19;4758353;30;20498;-79
2023/10/22 10:44:57;;;;;;;0.90;0.90;;;;;;;1.41;87.99;99608.88;4739749;30;20056;-79
2023/10/22 10:47:25;;;;;;;1.00;1.00;;;;;;;1.45;88.01;99612.88;4743055;30;20540;-78
2023/10/22 10:49:53;;;;;;;1.00;1.00;;;;;;;1.39;87.88;99610.88;4709135;30;20087;-79
2023/10/22 10:52:21;;;;;;;0.98;0.98;;;;;;;1.38;88.17;99611.88;4745480;30;20068;-80
2023/10/22 10:55:20;;;;;;;1.08;1.08;;;;;;;1.38;88.21;99602.06;4752651;30;20104;-80
2023/10/22 10:57:52;;;;;;;1.00;1.00;;;;;;;1.20;88.38;99609.44;4756208;30;20501;-81
2023/10/22 11:00:21;;;;;;;1.00;1.00;;;;;;;1.11;88.70;99600.63;4746495;30;20068;-81
2023/10/22 11:02:53;;;;;;;1.00;1.00;;;;;;;1.14;89.25;99602.13;4753193;30;20147;-80
2023/10/22 11:05:37;;;;;;;0.90;0.90;;;;;;;1.13;89.30;99603.94;4753113;30;20079;-81
2023/10/22 11:08:11;;;;;;;1.00;1.00;;;;;;;1.10;89.06;99598.97;4757705;30;20143;-82
2023/10/22 11:10:40;;;;;;;1.10;1.10;;;;;;;1.11;89.36;99594.47;4766413;30;20052;-83
2023/10/22 11:13:08;;;;;;;0.95;0.95;;;;;;;1.06;89.21;99597.63;4736551;30;20159;-82
2023/10/22 11:15:37;;;;;;;1.00;1.00;;;;;;;0.97;89.58;99590.69;4746925;30;20090;-81
2023/10/22 11:18:06;;;;;;;1.02;1.02;;;;;;;0.84;89.83;99594.69;4720757;30;20056;-82
2023/10/22 11:20:35;;;;;;;1.02;1.02;;;;;;;0.85;90.27;99585.72;4752679;30;20516;-83
2023/10/22 11:23:03;;;;;;;1.00;1.00;;;;;;;0.91;90.61;99584.19;4751554;30;20060;-82
2023/10/22 11:25:31;;;;;;;1.00;1.00;;;;;;;1.03;91.10;99582.03;4753340;30;20088;-82
2023/10/22 11:28:02;;;;;;;0.90;0.90;;;;;;;1.10;91.05;99574.22;4747975;30;20504;-83
2023/10/22 11:30:38;;;;;;;1.00;1.00;;;;;;;1.08;91.00;99572.56;4742401;30;20068;-83
2023/10/22 11:33:13;;;;;;;1.00;1.00;;;;;;;1.17;91.02;99578.69;4735015;30;20052;-82
2023/10/22 11:35:41;;;;;;;1.00;1.00;;;;;;;1.19;90.92;99576.69;4748278;30;20547;-82
2023/10/22 11:38:21;;;;;;;1.10;1.10;;;;;;;1.29;91.02;99572.03;4733739;30;20056;-83
2023/10/22 11:40:54;;;;;;;1.00;1.00;;;;;;;1.25;90.77;99572.53;4735546;30;20143;-82
2023/10/22 11:43:24;;;;;;;1.00;1.00;;;;;;;1.19;90.85;99566.06;4743275;30;20087;-83
2023/10/22 11:45:58;;;;;;;0.90;0.90;;;;;;;1.21;90.65;99564.03;4740002;30;20426;-81